sensor_id;sensor_type;location;lat;lon;timestamp;temperature;humidity
38910;DHT22;24676;51.360;12.354;2023-02-01T00:01:08;3.20;99.90
38910;DHT22;24676;51.360;12.354;2023-02-01T00:03:52;3.20;99.90
38910;DHT22;24676;51.360;12.354;2023-02-01T00:06:37;3.10;99.90
38910;DHT22;24676;51.360;12.354;2023-02-01T00:09:21;3.20;99.90
38910;DHT22;24676;51.360;12.354;2023-02-01T00:12:05;3.10;99.90
38910;DHT22;24676;51.360;12.354;2023-02-01T00:14:49;3.10;99.90
38910;DHT22;24676;51.360;12.354;2023-02-01T00:17:33;3.10;99.90
38910;DHT22;24676;51.360;12.354;2023-02-01T00:20:18;3.10;99.90
38910;DHT22;24676;51.360;12.354;2023-02-01T00:23:02;3.20;99.90
38910;DHT22;24676;51.360;12.354;2023-02-01T00:25:46;3.20;99.90
38910;DHT22;24676;51.360;12.354;2023-02-01T00:28:30;3.20;99.90
38910;DHT22;24676;51.360;12.354;2023-02-01T00:31:15;3.20;99.90
38910;DHT22;24676;51.360;12.354;2023-02-01T00:33:59;3.30;99.90
38910;DHT22;24676;51.360;12.354;2023-02-01T00:36:44;3.20;99.90
38910;DHT22;24676;51.360;12.354;2023-02-01T00:39:28;3.20;99.90
38910;DHT22;24676;51.360;12.354;2023-02-01T00:42:12;3.20;99.90
38910;DHT22;24676;51.360;12.354;2023-02-01T00:44:57;3.20;99.90
38910;DHT22;24676;51.360;12.354;2023-02-01T00:47:41;3.20;99.90
38910;DHT22;24676;51.360;12.354;2023-02-01T00:50:25;3.20;99.90
38910;DHT22;24676;51.360;12.354;2023-02-01T00:53:10;3.30;99.90
38910;DHT22;24676;51.360;12.354;2023-02-01T00:55:55;3.30;99.90
38910;DHT22;24676;51.360;12.354;2023-02-01T00:58:40;3.40;99.90
38910;DHT22;24676;51.360;12.354;2023-02-01T01:01:27;3.50;99.90
38910;DHT22;24676;51.360;12.354;2023-02-01T01:04:11;3.60;99.90
38910;DHT22;24676;51.360;12.354;2023-02-01T01:06:55;3.60;99.90
38910;DHT22;24676;51.360;12.354;2023-02-01T01:09:40;3.70;99.90
38910;DHT22;24676;51.360;12.354;2023-02-01T01:12:24;3.80;99.90
38910;DHT22;24676;51.360;12.354;2023-02-01T01:15:09;3.80;99.90
38910;DHT22;24676;51.360;12.354;2023-02-01T01:17:54;3.80;99.90
38910;DHT22;24676;51.360;12.354;2023-02-01T01:20:40;3.70;99.90
38910;DHT22;24676;51.360;12.354;2023-02-01T01:23:24;3.70;99.90
38910;DHT22;24676;51.360;12.354;2023-02-01T01:26:15;3.70;99.90
38910;DHT22;24676;51.360;12.354;2023-02-01T01:28:59;3.80;99.90
38910;DHT22;24676;51.360;12.354;2023-02-01T01:31:44;3.90;99.90
38910;DHT22;24676;51.360;12.354;2023-02-01T01:34:28;3.90;99.90
38910;DHT22;24676;51.360;12.354;2023-02-01T01:37:12;3.90;99.90
38910;DHT22;24676;51.360;12.354;2023-02-01T01:39:56;3.90;99.90
38910;DHT22;24676;51.360;12.354;2023-02-01T01:42:44;3.90;99.90
38910;DHT22;24676;51.360;12.354;2023-02-01T01:45:31;3.90;99.90
38910;DHT22;24676;51.360;12.354;2023-02-01T01:48:24;3.80;99.90
38910;DHT22;24676;51.360;12.354;2023-02-01T01:51:11;3.80;99.90
38910;DHT22;24676;51.360;12.354;2023-02-01T01:54:18;3.80;99.90
38910;DHT22;24676;51.360;12.354;2023-02-01T01:57:09;3.80;99.90
38910;DHT22;24676;51.360;12.354;2023-02-01T02:00:16;3.80;99.90
38910;DHT22;24676;51.360;12.354;2023-02-01T02:03:06;3.80;99.90
38910;DHT22;24676;51.360;12.354;2023-02-01T02:05:55;3.80;99.90
38910;DHT22;24676;51.360;12.354;2023-02-01T02:08:41;3.80;99.90
38910;DHT22;24676;51.360;12.354;2023-02-01T02:11:25;3.80;99.90
38910;DHT22;24676;51.360;12.354;2023-02-01T02:14:12;3.80;99.90
38910;DHT22;24676;51.360;12.354;2023-02-01T02:17:22;3.90;99.90
38910;DHT22;24676;51.360;12.354;2023-02-01T02:35:30;3.90;99.90
38910;DHT22;24676;51.360;12.354;2023-02-01T02:45:20;4.00;99.90
38910;DHT22;24676;51.360;12.354;2023-02-01T02:48:49;4.00;99.90
38910;DHT22;24676;51.360;12.354;2023-02-01T02:51:56;4.10;99.90
38910;DHT22;24676;51.360;12.354;2023-02-01T02:55:04;4.00;99.90
38910;DHT22;24676;51.360;12.354;2023-02-01T02:57:49;4.00;99.90
38910;DHT22;24676;51.360;12.354;2023-02-01T03:00:54;4.00;99.90
38910;DHT22;24676;51.360;12.354;2023-02-01T03:03:58;4.10;99.90
38910;DHT22;24676;51.360;12.354;2023-02-01T03:06:53;4.10;99.90
38910;DHT22;24676;51.360;12.354;2023-02-01T03:09:40;4.10;99.90
38910;DHT22;24676;51.360;12.354;2023-02-01T03:12:25;4.10;99.90
38910;DHT22;24676;51.360;12.354;2023-02-01T03:21:26;4.30;99.90
38910;DHT22;24676;51.360;12.354;2023-02-01T03:24:21;4.30;99.90
38910;DHT22;24676;51.360;12.354;2023-02-01T03:27:24;4.40;99.90
38910;DHT22;24676;51.360;12.354;2023-02-01T03:32:58;4.40;99.90
38910;DHT22;24676;51.360;12.354;2023-02-01T03:35:48;4.50;99.90
38910;DHT22;24676;51.360;12.354;2023-02-01T03:41:55;4.50;99.90
38910;DHT22;24676;51.360;12.354;2023-02-01T03:44:53;4.50;99.90
38910;DHT22;24676;51.360;12.354;2023-02-01T03:47:44;4.50;99.90
38910;DHT22;24676;51.360;12.354;2023-02-01T03:50:31;4.50;99.90
38910;DHT22;24676;51.360;12.354;2023-02-01T03:53:20;4.50;99.90
38910;DHT22;24676;51.360;12.354;2023-02-01T03:56:06;4.50;99.90
38910;DHT22;24676;51.360;12.354;2023-02-01T03:58:51;4.50;99.90
38910;DHT22;24676;51.360;12.354;2023-02-01T04:01:45;4.50;99.90
38910;DHT22;24676;51.360;12.354;2023-02-01T04:04:29;4.50;99.90
38910;DHT22;24676;51.360;12.354;2023-02-01T04:07:13;4.50;99.90
38910;DHT22;24676;51.360;12.354;2023-02-01T04:09:57;4.50;99.90
38910;DHT22;24676;51.360;12.354;2023-02-01T04:12:41;4.50;99.90
38910;DHT22;24676;51.360;12.354;2023-02-01T04:15:26;4.50;99.90
38910;DHT22;24676;51.360;12.354;2023-02-01T04:18:10;4.50;99.90
38910;DHT22;24676;51.360;12.354;2023-02-01T04:20:54;4.50;99.90
38910;DHT22;24676;51.360;12.354;2023-02-01T04:23:39;4.40;99.90
38910;DHT22;24676;51.360;12.354;2023-02-01T04:26:23;4.40;99.90
38910;DHT22;24676;51.360;12.354;2023-02-01T04:29:09;4.40;99.90
38910;DHT22;24676;51.360;12.354;2023-02-01T04:31:53;4.40;99.90
38910;DHT22;24676;51.360;12.354;2023-02-01T04:34:37;4.40;99.90
38910;DHT22;24676;51.360;12.354;2023-02-01T04:37:21;4.40;99.90
38910;DHT22;24676;51.360;12.354;2023-02-01T04:40:06;4.40;99.90
38910;DHT22;24676;51.360;12.354;2023-02-01T04:42:51;4.40;99.90
38910;DHT22;24676;51.360;12.354;2023-02-01T04:45:35;4.40;99.90
38910;DHT22;24676;51.360;12.354;2023-02-01T04:48:20;4.50;99.90
38910;DHT22;24676;51.360;12.354;2023-02-01T04:51:04;4.50;99.90
38910;DHT22;24676;51.360;12.354;2023-02-01T04:53:49;4.50;99.90
38910;DHT22;24676;51.360;12.354;2023-02-01T04:56:34;4.50;99.90
38910;DHT22;24676;51.360;12.354;2023-02-01T04:59:21;4.50;99.90
38910;DHT22;24676;51.360;12.354;2023-02-01T05:02:05;4.50;99.90
38910;DHT22;24676;51.360;12.354;2023-02-01T05:04:49;4.50;99.90
38910;DHT22;24676;51.360;12.354;2023-02-01T05:07:34;4.50;99.90
38910;DHT22;24676;51.360;12.354;2023-02-01T05:10:18;4.40;99.90
38910;DHT22;24676;51.360;12.354;2023-02-01T05:13:03;4.40;99.90
38910;DHT22;24676;51.360;12.354;2023-02-01T05:16:06;4.30;99.90
38910;DHT22;24676;51.360;12.354;2023-02-01T05:18:51;4.30;99.90
38910;DHT22;24676;51.360;12.354;2023-02-01T05:21:34;4.20;99.90
38910;DHT22;24676;51.360;12.354;2023-02-01T05:24:19;4.20;99.90
38910;DHT22;24676;51.360;12.354;2023-02-01T05:27:04;4.20;99.90
38910;DHT22;24676;51.360;12.354;2023-02-01T05:29:48;4.20;99.90
38910;DHT22;24676;51.360;12.354;2023-02-01T05:32:33;4.20;99.90
38910;DHT22;24676;51.360;12.354;2023-02-01T05:35:17;4.20;99.90
38910;DHT22;24676;51.360;12.354;2023-02-01T05:38:02;4.20;99.90
38910;DHT22;24676;51.360;12.354;2023-02-01T05:40:46;4.20;99.90
38910;DHT22;24676;51.360;12.354;2023-02-01T05:43:33;4.30;99.90
38910;DHT22;24676;51.360;12.354;2023-02-01T05:46:18;4.20;99.90
38910;DHT22;24676;51.360;12.354;2023-02-01T05:49:02;4.20;99.90
38910;DHT22;24676;51.360;12.354;2023-02-01T05:51:46;4.10;99.90
38910;DHT22;24676;51.360;12.354;2023-02-01T05:54:30;4.00;99.90
38910;DHT22;24676;51.360;12.354;2023-02-01T05:57:15;4.10;99.90
38910;DHT22;24676;51.360;12.354;2023-02-01T05:59:59;4.10;99.90
38910;DHT22;24676;51.360;12.354;2023-02-01T06:02:43;4.20;99.90
38910;DHT22;24676;51.360;12.354;2023-02-01T06:05:27;4.20;99.90
38910;DHT22;24676;51.360;12.354;2023-02-01T06:08:11;4.30;99.90
38910;DHT22;24676;51.360;12.354;2023-02-01T06:11:00;4.40;99.90
38910;DHT22;24676;51.360;12.354;2023-02-01T06:13:45;4.40;99.90
38910;DHT22;24676;51.360;12.354;2023-02-01T06:16:30;4.50;99.90
38910;DHT22;24676;51.360;12.354;2023-02-01T06:19:15;4.50;99.90
38910;DHT22;24676;51.360;12.354;2023-02-01T06:21:59;4.50;99.90
38910;DHT22;24676;51.360;12.354;2023-02-01T06:24:44;4.60;99.90
38910;DHT22;24676;51.360;12.354;2023-02-01T06:27:28;4.60;99.90
38910;DHT22;24676;51.360;12.354;2023-02-01T06:30:13;4.60;99.90
38910;DHT22;24676;51.360;12.354;2023-02-01T06:32:57;4.60;99.90
38910;DHT22;24676;51.360;12.354;2023-02-01T06:35:42;4.60;99.90
38910;DHT22;24676;51.360;12.354;2023-02-01T06:38:28;4.60;99.90
38910;DHT22;24676;51.360;12.354;2023-02-01T06:41:13;4.60;99.90
38910;DHT22;24676;51.360;12.354;2023-02-01T06:43:57;4.50;99.90
38910;DHT22;24676;51.360;12.354;2023-02-01T06:46:41;4.50;99.90
38910;DHT22;24676;51.360;12.354;2023-02-01T06:49:25;4.60;99.90
38910;DHT22;24676;51.360;12.354;2023-02-01T06:52:10;4.60;99.90
38910;DHT22;24676;51.360;12.354;2023-02-01T06:54:54;4.60;99.90
38910;DHT22;24676;51.360;12.354;2023-02-01T06:57:39;4.70;99.90
38910;DHT22;24676;51.360;12.354;2023-02-01T07:00:23;4.70;99.90
38910;DHT22;24676;51.360;12.354;2023-02-01T07:03:08;4.70;99.90
38910;DHT22;24676;51.360;12.354;2023-02-01T07:05:56;4.70;99.90
38910;DHT22;24676;51.360;12.354;2023-02-01T07:08:42;4.80;99.90
38910;DHT22;24676;51.360;12.354;2023-02-01T07:11:26;4.80;99.90
38910;DHT22;24676;51.360;12.354;2023-02-01T07:14:12;4.80;99.90
38910;DHT22;24676;51.360;12.354;2023-02-01T07:16:56;4.90;99.90
38910;DHT22;24676;51.360;12.354;2023-02-01T07:19:40;4.90;99.90
38910;DHT22;24676;51.360;12.354;2023-02-01T07:22:24;5.00;99.90
38910;DHT22;24676;51.360;12.354;2023-02-01T07:25:09;5.10;99.90
38910;DHT22;24676;51.360;12.354;2023-02-01T07:27:53;5.20;99.90
38910;DHT22;24676;51.360;12.354;2023-02-01T07:30:37;5.30;99.90
38910;DHT22;24676;51.360;12.354;2023-02-01T07:33:23;5.40;99.90
38910;DHT22;24676;51.360;12.354;2023-02-01T07:36:12;5.50;99.90
38910;DHT22;24676;51.360;12.354;2023-02-01T07:38:57;5.50;99.90
38910;DHT22;24676;51.360;12.354;2023-02-01T07:41:41;5.50;99.90
38910;DHT22;24676;51.360;12.354;2023-02-01T07:44:25;5.60;99.90
38910;DHT22;24676;51.360;12.354;2023-02-01T07:47:09;5.60;99.90
38910;DHT22;24676;51.360;12.354;2023-02-01T07:49:53;5.60;99.90
38910;DHT22;24676;51.360;12.354;2023-02-01T07:52:37;5.70;99.90
38910;DHT22;24676;51.360;12.354;2023-02-01T07:55:22;5.70;99.90
38910;DHT22;24676;51.360;12.354;2023-02-01T07:58:06;5.70;99.90
38910;DHT22;24676;51.360;12.354;2023-02-01T08:00:51;5.70;99.90
38910;DHT22;24676;51.360;12.354;2023-02-01T08:03:56;5.60;99.90
38910;DHT22;24676;51.360;12.354;2023-02-01T08:06:42;5.60;99.90
38910;DHT22;24676;51.360;12.354;2023-02-01T08:09:27;5.60;99.90
38910;DHT22;24676;51.360;12.354;2023-02-01T08:12:11;5.50;99.90
38910;DHT22;24676;51.360;12.354;2023-02-01T08:14:55;5.50;99.90
38910;DHT22;24676;51.360;12.354;2023-02-01T08:17:40;5.50;99.90
38910;DHT22;24676;51.360;12.354;2023-02-01T08:20:25;5.50;99.90
38910;DHT22;24676;51.360;12.354;2023-02-01T08:23:12;5.50;99.90
38910;DHT22;24676;51.360;12.354;2023-02-01T08:26:05;5.50;99.90
38910;DHT22;24676;51.360;12.354;2023-02-01T08:28:52;5.40;99.90
38910;DHT22;24676;51.360;12.354;2023-02-01T08:31:37;5.40;99.90
38910;DHT22;24676;51.360;12.354;2023-02-01T08:34:24;5.40;99.90
38910;DHT22;24676;51.360;12.354;2023-02-01T08:37:08;5.30;99.90
38910;DHT22;24676;51.360;12.354;2023-02-01T08:43:14;5.00;99.90
38910;DHT22;24676;51.360;12.354;2023-02-01T08:45:58;4.90;99.90
38910;DHT22;24676;51.360;12.354;2023-02-01T08:48:42;4.80;99.90
38910;DHT22;24676;51.360;12.354;2023-02-01T08:51:27;4.60;99.90
38910;DHT22;24676;51.360;12.354;2023-02-01T08:54:11;4.40;99.90
38910;DHT22;24676;51.360;12.354;2023-02-01T08:56:55;4.30;99.90
38910;DHT22;24676;51.360;12.354;2023-02-01T08:59:40;4.20;99.90
38910;DHT22;24676;51.360;12.354;2023-02-01T09:02:24;4.10;99.90
38910;DHT22;24676;51.360;12.354;2023-02-01T09:05:09;4.00;99.90
38910;DHT22;24676;51.360;12.354;2023-02-01T09:07:54;4.00;99.90
38910;DHT22;24676;51.360;12.354;2023-02-01T09:10:39;4.00;99.90
38910;DHT22;24676;51.360;12.354;2023-02-01T09:13:25;4.00;99.90
38910;DHT22;24676;51.360;12.354;2023-02-01T09:16:09;4.00;99.90
38910;DHT22;24676;51.360;12.354;2023-02-01T09:18:53;4.00;99.90
38910;DHT22;24676;51.360;12.354;2023-02-01T09:21:37;4.00;99.90
38910;DHT22;24676;51.360;12.354;2023-02-01T09:24:21;4.00;99.90
38910;DHT22;24676;51.360;12.354;2023-02-01T09:27:06;4.10;99.90
38910;DHT22;24676;51.360;12.354;2023-02-01T09:29:50;4.10;99.90
38910;DHT22;24676;51.360;12.354;2023-02-01T09:32:36;4.20;99.90
38910;DHT22;24676;51.360;12.354;2023-02-01T09:35:21;4.20;99.90
38910;DHT22;24676;51.360;12.354;2023-02-01T09:38:05;4.20;99.90
38910;DHT22;24676;51.360;12.354;2023-02-01T09:40:50;4.20;99.90
38910;DHT22;24676;51.360;12.354;2023-02-01T09:43:51;4.30;99.90
38910;DHT22;24676;51.360;12.354;2023-02-01T09:46:37;4.40;99.90
38910;DHT22;24676;51.360;12.354;2023-02-01T09:49:30;4.60;99.90
38910;DHT22;24676;51.360;12.354;2023-02-01T09:52:15;4.80;99.90
38910;DHT22;24676;51.360;12.354;2023-02-01T09:55:06;5.00;99.90
38910;DHT22;24676;51.360;12.354;2023-02-01T09:58:00;5.00;99.90
38910;DHT22;24676;51.360;12.354;2023-02-01T10:01:04;5.00;99.90
38910;DHT22;24676;51.360;12.354;2023-02-01T10:03:51;5.10;99.90
38910;DHT22;24676;51.360;12.354;2023-02-01T10:12:36;5.50;99.90
38910;DHT22;24676;51.360;12.354;2023-02-01T10:27:21;5.90;99.90
38910;DHT22;24676;51.360;12.354;2023-02-01T10:32:57;6.00;99.90
38910;DHT22;24676;51.360;12.354;2023-02-01T10:35:45;6.00;99.90
38910;DHT22;24676;51.360;12.354;2023-02-01T10:38:30;6.00;99.90
38910;DHT22;24676;51.360;12.354;2023-02-01T10:41:16;6.10;99.90
38910;DHT22;24676;51.360;12.354;2023-02-01T10:44:03;6.10;99.90
38910;DHT22;24676;51.360;12.354;2023-02-01T10:46:48;6.20;99.90
38910;DHT22;24676;51.360;12.354;2023-02-01T10:49:34;6.20;99.90
38910;DHT22;24676;51.360;12.354;2023-02-01T10:52:27;6.20;99.90
38910;DHT22;24676;51.360;12.354;2023-02-01T10:58:29;6.30;99.90
38910;DHT22;24676;51.360;12.354;2023-02-01T11:01:16;6.40;99.90
38910;DHT22;24676;51.360;12.354;2023-02-01T11:04:24;6.70;99.90
38910;DHT22;24676;51.360;12.354;2023-02-01T11:09:53;7.80;99.90
38910;DHT22;24676;51.360;12.354;2023-02-01T11:12:41;8.50;99.90
38910;DHT22;24676;51.360;12.354;2023-02-01T11:15:26;8.80;99.90
38910;DHT22;24676;51.360;12.354;2023-02-01T11:18:19;8.60;99.90
38910;DHT22;24676;51.360;12.354;2023-02-01T11:21:04;8.30;99.90
38910;DHT22;24676;51.360;12.354;2023-02-01T11:23:48;7.90;99.90
38910;DHT22;24676;51.360;12.354;2023-02-01T11:26:33;7.60;99.90
38910;DHT22;24676;51.360;12.354;2023-02-01T11:29:18;7.40;99.90
38910;DHT22;24676;51.360;12.354;2023-02-01T11:32:08;7.30;99.90
38910;DHT22;24676;51.360;12.354;2023-02-01T11:34:57;7.40;99.90
38910;DHT22;24676;51.360;12.354;2023-02-01T11:37:53;7.60;99.90
38910;DHT22;24676;51.360;12.354;2023-02-01T11:40:38;7.90;99.90
38910;DHT22;24676;51.360;12.354;2023-02-01T11:43:23;8.20;99.90
38910;DHT22;24676;51.360;12.354;2023-02-01T11:46:17;8.40;99.90
38910;DHT22;24676;51.360;12.354;2023-02-01T11:49:23;8.70;99.90
38910;DHT22;24676;51.360;12.354;2023-02-01T11:52:11;8.40;99.90
38910;DHT22;24676;51.360;12.354;2023-02-01T11:55:03;8.20;99.90
38910;DHT22;24676;51.360;12.354;2023-02-01T11:58:26;8.00;99.90
38910;DHT22;24676;51.360;12.354;2023-02-01T12:01:13;8.00;99.90
38910;DHT22;24676;51.360;12.354;2023-02-01T12:10:28;7.90;99.90
38910;DHT22;24676;51.360;12.354;2023-02-01T12:13:25;7.90;99.90
38910;DHT22;24676;51.360;12.354;2023-02-01T12:38:52;7.80;99.90
38910;DHT22;24676;51.360;12.354;2023-02-01T12:48:03;7.70;99.90
38910;DHT22;24676;51.360;12.354;2023-02-01T12:50:53;7.70;99.90
38910;DHT22;24676;51.360;12.354;2023-02-01T12:56:52;7.60;99.90
38910;DHT22;24676;51.360;12.354;2023-02-01T12:59:47;7.50;99.90
38910;DHT22;24676;51.360;12.354;2023-02-01T13:02:42;7.50;99.90
38910;DHT22;24676;51.360;12.354;2023-02-01T13:05:33;7.50;99.90
38910;DHT22;24676;51.360;12.354;2023-02-01T13:08:48;7.50;99.90
38910;DHT22;24676;51.360;12.354;2023-02-01T13:11:37;7.50;99.90
38910;DHT22;24676;51.360;12.354;2023-02-01T13:14:51;7.50;99.90
38910;DHT22;24676;51.360;12.354;2023-02-01T13:17:38;7.40;99.90
38910;DHT22;24676;51.360;12.354;2023-02-01T13:20:37;7.30;99.90
38910;DHT22;24676;51.360;12.354;2023-02-01T13:23:27;7.30;99.90
38910;DHT22;24676;51.360;12.354;2023-02-01T13:26:12;7.30;99.90
38910;DHT22;24676;51.360;12.354;2023-02-01T13:29:04;7.30;99.90
38910;DHT22;24676;51.360;12.354;2023-02-01T13:38:15;7.20;99.90
38910;DHT22;24676;51.360;12.354;2023-02-01T13:44:16;7.10;99.90
38910;DHT22;24676;51.360;12.354;2023-02-01T13:47:27;7.10;99.90
38910;DHT22;24676;51.360;12.354;2023-02-01T13:55:57;7.40;99.90
38910;DHT22;24676;51.360;12.354;2023-02-01T13:58:44;7.50;99.90
38910;DHT22;24676;51.360;12.354;2023-02-01T14:04:52;7.50;99.90
38910;DHT22;24676;51.360;12.354;2023-02-01T14:07:36;7.40;99.90
38910;DHT22;24676;51.360;12.354;2023-02-01T14:10:59;7.30;99.90
38910;DHT22;24676;51.360;12.354;2023-02-01T14:13:44;7.30;99.90
38910;DHT22;24676;51.360;12.354;2023-02-01T14:16:29;7.20;99.90
38910;DHT22;24676;51.360;12.354;2023-02-01T14:19:22;7.10;99.90
38910;DHT22;24676;51.360;12.354;2023-02-01T14:25:16;7.10;99.90
38910;DHT22;24676;51.360;12.354;2023-02-01T14:28:01;7.10;99.90
38910;DHT22;24676;51.360;12.354;2023-02-01T14:30:56;7.20;99.90
38910;DHT22;24676;51.360;12.354;2023-02-01T14:33:41;7.20;99.90
38910;DHT22;24676;51.360;12.354;2023-02-01T14:36:40;7.20;99.90
38910;DHT22;24676;51.360;12.354;2023-02-01T14:39:35;7.30;99.90
38910;DHT22;24676;51.360;12.354;2023-02-01T14:50:50;7.30;99.90
38910;DHT22;24676;51.360;12.354;2023-02-01T14:53:36;7.20;99.90
38910;DHT22;24676;51.360;12.354;2023-02-01T14:56:21;7.10;99.90
38910;DHT22;24676;51.360;12.354;2023-02-01T14:59:12;7.10;99.90
38910;DHT22;24676;51.360;12.354;2023-02-01T15:01:58;7.00;99.90
38910;DHT22;24676;51.360;12.354;2023-02-01T15:04:43;6.90;99.90
38910;DHT22;24676;51.360;12.354;2023-02-01T15:07:29;6.90;99.90
38910;DHT22;24676;51.360;12.354;2023-02-01T15:10:14;6.70;99.90
38910;DHT22;24676;51.360;12.354;2023-02-01T15:13:00;6.60;99.90
38910;DHT22;24676;51.360;12.354;2023-02-01T15:15:44;6.40;99.90
38910;DHT22;24676;51.360;12.354;2023-02-01T15:18:29;6.30;99.90
38910;DHT22;24676;51.360;12.354;2023-02-01T15:21:21;6.20;99.90
38910;DHT22;24676;51.360;12.354;2023-02-01T15:24:17;6.20;99.90
38910;DHT22;24676;51.360;12.354;2023-02-01T15:27:04;6.20;99.90
38910;DHT22;24676;51.360;12.354;2023-02-01T15:29:50;6.20;99.90
38910;DHT22;24676;51.360;12.354;2023-02-01T15:32:37;6.10;99.90
38910;DHT22;24676;51.360;12.354;2023-02-01T15:41:17;6.00;99.90
38910;DHT22;24676;51.360;12.354;2023-02-01T15:44:40;5.90;99.90
38910;DHT22;24676;51.360;12.354;2023-02-01T15:47:28;5.90;99.90
38910;DHT22;24676;51.360;12.354;2023-02-01T15:50:19;5.90;99.90
38910;DHT22;24676;51.360;12.354;2023-02-01T15:53:04;6.00;99.90
38910;DHT22;24676;51.360;12.354;2023-02-01T15:55:55;6.00;99.90
38910;DHT22;24676;51.360;12.354;2023-02-01T15:58:42;6.00;99.90
38910;DHT22;24676;51.360;12.354;2023-02-01T16:01:26;5.80;99.90
38910;DHT22;24676;51.360;12.354;2023-02-01T16:07:03;5.50;99.90
38910;DHT22;24676;51.360;12.354;2023-02-01T16:09:56;4.70;99.90
38910;DHT22;24676;51.360;12.354;2023-02-01T16:15:27;3.10;99.90
38910;DHT22;24676;51.360;12.354;2023-02-01T16:18:14;2.70;99.90
38910;DHT22;24676;51.360;12.354;2023-02-01T16:20:58;2.50;99.90
38910;DHT22;24676;51.360;12.354;2023-02-01T16:23:43;2.50;99.90
38910;DHT22;24676;51.360;12.354;2023-02-01T16:26:27;2.40;99.90
38910;DHT22;24676;51.360;12.354;2023-02-01T16:29:11;2.50;99.90
38910;DHT22;24676;51.360;12.354;2023-02-01T16:31:55;2.50;99.90
38910;DHT22;24676;51.360;12.354;2023-02-01T16:34:39;2.50;99.90
38910;DHT22;24676;51.360;12.354;2023-02-01T16:37:25;2.50;99.90
38910;DHT22;24676;51.360;12.354;2023-02-01T16:40:16;2.50;99.90
38910;DHT22;24676;51.360;12.354;2023-02-01T16:43:00;2.50;99.90
38910;DHT22;24676;51.360;12.354;2023-02-01T16:45:46;2.50;99.90
38910;DHT22;24676;51.360;12.354;2023-02-01T16:48:35;2.50;99.90
38910;DHT22;24676;51.360;12.354;2023-02-01T16:51:20;2.50;99.90
38910;DHT22;24676;51.360;12.354;2023-02-01T16:54:04;2.60;99.90
38910;DHT22;24676;51.360;12.354;2023-02-01T16:56:49;2.60;99.90
38910;DHT22;24676;51.360;12.354;2023-02-01T16:59:33;2.60;99.90
38910;DHT22;24676;51.360;12.354;2023-02-01T17:02:19;2.60;99.90
38910;DHT22;24676;51.360;12.354;2023-02-01T17:05:05;2.70;99.90
38910;DHT22;24676;51.360;12.354;2023-02-01T17:07:50;2.70;99.90
38910;DHT22;24676;51.360;12.354;2023-02-01T17:10:34;2.70;99.90
38910;DHT22;24676;51.360;12.354;2023-02-01T17:13:18;2.60;99.90
38910;DHT22;24676;51.360;12.354;2023-02-01T17:19:04;2.60;99.90
38910;DHT22;24676;51.360;12.354;2023-02-01T17:21:52;2.50;99.90
38910;DHT22;24676;51.360;12.354;2023-02-01T17:24:38;2.50;99.90
38910;DHT22;24676;51.360;12.354;2023-02-01T17:27:22;2.40;99.90
38910;DHT22;24676;51.360;12.354;2023-02-01T17:30:07;2.40;99.90
38910;DHT22;24676;51.360;12.354;2023-02-01T17:32:53;2.30;99.90
38910;DHT22;24676;51.360;12.354;2023-02-01T17:35:40;2.20;99.90
38910;DHT22;24676;51.360;12.354;2023-02-01T17:38:25;2.20;99.90
38910;DHT22;24676;51.360;12.354;2023-02-01T17:41:10;2.10;99.90
38910;DHT22;24676;51.360;12.354;2023-02-01T17:43:55;2.10;99.90
38910;DHT22;24676;51.360;12.354;2023-02-01T17:46:38;2.00;99.90
38910;DHT22;24676;51.360;12.354;2023-02-01T17:49:23;2.00;99.90
38910;DHT22;24676;51.360;12.354;2023-02-01T17:52:14;2.10;99.90
38910;DHT22;24676;51.360;12.354;2023-02-01T17:54:59;2.10;99.90
38910;DHT22;24676;51.360;12.354;2023-02-01T17:57:43;2.10;99.90
38910;DHT22;24676;51.360;12.354;2023-02-01T18:00:27;2.10;99.90
38910;DHT22;24676;51.360;12.354;2023-02-01T18:06:16;2.10;99.90
38910;DHT22;24676;51.360;12.354;2023-02-01T18:09:00;2.20;99.90
38910;DHT22;24676;51.360;12.354;2023-02-01T18:11:45;2.10;99.90
38910;DHT22;24676;51.360;12.354;2023-02-01T18:14:29;2.10;99.90
38910;DHT22;24676;51.360;12.354;2023-02-01T18:17:14;2.00;99.90
38910;DHT22;24676;51.360;12.354;2023-02-01T18:19:58;2.00;99.90
38910;DHT22;24676;51.360;12.354;2023-02-01T18:22:43;2.00;99.90
38910;DHT22;24676;51.360;12.354;2023-02-01T18:25:29;2.00;99.90
38910;DHT22;24676;51.360;12.354;2023-02-01T18:28:18;2.00;99.90
38910;DHT22;24676;51.360;12.354;2023-02-01T18:31:04;2.00;99.90
38910;DHT22;24676;51.360;12.354;2023-02-01T18:33:50;1.90;99.90
38910;DHT22;24676;51.360;12.354;2023-02-01T18:36:35;2.00;99.90
38910;DHT22;24676;51.360;12.354;2023-02-01T18:39:19;2.00;99.90
38910;DHT22;24676;51.360;12.354;2023-02-01T18:42:03;2.00;99.90
38910;DHT22;24676;51.360;12.354;2023-02-01T18:44:47;2.00;99.90
38910;DHT22;24676;51.360;12.354;2023-02-01T18:47:32;2.00;99.90
38910;DHT22;24676;51.360;12.354;2023-02-01T18:50:17;2.00;99.90
38910;DHT22;24676;51.360;12.354;2023-02-01T18:53:04;2.00;99.90
38910;DHT22;24676;51.360;12.354;2023-02-01T18:55:48;2.00;99.90
38910;DHT22;24676;51.360;12.354;2023-02-01T18:58:33;2.10;99.90
38910;DHT22;24676;51.360;12.354;2023-02-01T19:01:19;2.10;99.90
38910;DHT22;24676;51.360;12.354;2023-02-01T19:04:04;2.10;99.90
38910;DHT22;24676;51.360;12.354;2023-02-01T19:06:49;2.10;99.90
38910;DHT22;24676;51.360;12.354;2023-02-01T19:09:33;2.20;99.90
38910;DHT22;24676;51.360;12.354;2023-02-01T19:12:19;2.30;99.90
38910;DHT22;24676;51.360;12.354;2023-02-01T19:15:04;2.30;99.90
38910;DHT22;24676;51.360;12.354;2023-02-01T19:17:51;2.30;99.90
38910;DHT22;24676;51.360;12.354;2023-02-01T19:20:38;2.30;99.90
38910;DHT22;24676;51.360;12.354;2023-02-01T19:23:24;2.40;99.90
38910;DHT22;24676;51.360;12.354;2023-02-01T19:26:10;2.40;99.90
38910;DHT22;24676;51.360;12.354;2023-02-01T19:28:57;2.50;99.90
38910;DHT22;24676;51.360;12.354;2023-02-01T19:31:41;2.60;99.90
38910;DHT22;24676;51.360;12.354;2023-02-01T19:34:27;2.70;99.90
38910;DHT22;24676;51.360;12.354;2023-02-01T19:37:11;2.80;99.90
38910;DHT22;24676;51.360;12.354;2023-02-01T19:39:56;2.80;99.90
38910;DHT22;24676;51.360;12.354;2023-02-01T19:42:41;2.90;99.90
38910;DHT22;24676;51.360;12.354;2023-02-01T19:45:26;2.90;99.90
38910;DHT22;24676;51.360;12.354;2023-02-01T19:48:10;2.80;99.90
38910;DHT22;24676;51.360;12.354;2023-02-01T19:50:56;2.70;99.90
38910;DHT22;24676;51.360;12.354;2023-02-01T19:53:41;2.80;99.90
38910;DHT22;24676;51.360;12.354;2023-02-01T19:56:25;2.80;99.90
38910;DHT22;24676;51.360;12.354;2023-02-01T19:59:10;2.80;99.90
38910;DHT22;24676;51.360;12.354;2023-02-01T20:01:55;2.90;99.90
38910;DHT22;24676;51.360;12.354;2023-02-01T20:04:39;3.00;99.90
38910;DHT22;24676;51.360;12.354;2023-02-01T20:07:24;3.00;99.90